createdAt,value
2018-07-19T00:01:12.871Z,9.53
2018-07-19T00:03:41.352Z,7.93
2018-07-19T00:06:09.507Z,10.37
2018-07-19T00:08:38.047Z,7.70
2018-07-19T00:11:06.519Z,8.60
2018-07-19T00:13:34.967Z,8.27
2018-07-19T00:16:03.407Z,11.40
2018-07-19T00:18:31.851Z,8.63
2018-07-19T00:21:00.286Z,10.23
2018-07-19T00:23:28.735Z,9.17
2018-07-19T00:25:57.992Z,13.60
2018-07-19T00:28:26.455Z,8.20
2018-07-19T00:30:54.907Z,9.87
2018-07-19T00:33:23.391Z,10.03
2018-07-19T00:35:52.114Z,9.03
2018-07-19T00:38:20.703Z,8.57
2018-07-19T00:40:49.154Z,10.50
2018-07-19T00:43:17.618Z,11.33
2018-07-19T00:45:46.043Z,9.50
2018-07-19T00:48:14.486Z,10.10
2018-07-19T00:50:42.651Z,7.73
2018-07-19T00:53:11.216Z,8.43
2018-07-19T00:55:40.087Z,10.67
2018-07-19T00:58:08.555Z,10.03
2018-07-19T01:00:37.031Z,8.87
2018-07-19T01:03:05.523Z,9.10
2018-07-19T01:05:34.046Z,7.83
2018-07-19T01:08:02.448Z,8.17
2018-07-19T01:10:30.899Z,7.80
2018-07-19T01:12:59.353Z,7.63
2018-07-19T01:15:27.807Z,10.03
2018-07-19T01:17:56.267Z,11.97
2018-07-19T01:20:24.741Z,8.43
2018-07-19T01:22:53.171Z,9.33
2018-07-19T01:25:21.650Z,12.97
2018-07-19T01:27:50.087Z,10.83
2018-07-19T01:30:18.548Z,11.90
2018-07-19T01:32:47.403Z,9.53
2018-07-19T01:35:15.851Z,9.43
2018-07-19T01:37:44.308Z,9.33
2018-07-19T01:40:12.764Z,7.93
2018-07-19T01:42:42.406Z,9.87
2018-07-19T01:45:11.530Z,12.57
2018-07-19T01:47:40.412Z,9.07
2018-07-19T01:50:09.814Z,8.40
2018-07-19T01:52:38.439Z,7.13
2018-07-19T01:55:07.318Z,11.17
2018-07-19T01:57:35.812Z,11.17
2018-07-19T02:00:04.990Z,7.60
2018-07-19T02:02:33.375Z,9.50
2018-07-19T02:05:01.892Z,9.20
2018-07-19T02:07:30.335Z,16.70
2018-07-19T02:09:58.806Z,8.73
2018-07-19T02:12:27.263Z,10.33
2018-07-19T02:14:55.707Z,9.03
2018-07-19T02:17:23.846Z,8.67
2018-07-19T02:19:52.328Z,8.43
2018-07-19T02:22:20.771Z,14.83
2018-07-19T02:24:49.462Z,8.27
2018-07-19T02:27:17.888Z,9.80
2018-07-19T02:29:46.348Z,10.37
2018-07-19T02:32:14.786Z,10.03
2018-07-19T02:34:43.262Z,8.67
2018-07-19T02:37:11.719Z,10.70
2018-07-19T02:39:40.185Z,8.27
2018-07-19T02:42:08.616Z,9.90
2018-07-19T02:44:37.059Z,10.10
2018-07-19T02:47:06.115Z,12.33
2018-07-19T02:49:34.585Z,9.07
2018-07-19T02:52:03.030Z,9.80
2018-07-19T02:54:31.471Z,11.97
2018-07-19T02:56:59.922Z,11.73
2018-07-19T02:59:28.396Z,10.20
2018-07-19T03:01:56.852Z,11.30
2018-07-19T03:04:25.315Z,9.33
2018-07-19T03:06:53.775Z,8.53
2018-07-19T03:09:22.251Z,9.47
2018-07-19T03:11:50.719Z,10.30
2018-07-19T03:14:19.311Z,11.47
2018-07-19T03:16:47.794Z,10.27
2018-07-19T03:19:16.516Z,10.20
2018-07-19T03:21:44.966Z,10.07
2018-07-19T03:24:13.416Z,10.47
2018-07-19T03:26:41.863Z,9.70
2018-07-19T03:29:10.306Z,14.90
2018-07-19T03:31:38.776Z,9.80
2018-07-19T03:34:07.228Z,10.23
2018-07-19T03:36:35.690Z,8.70
2018-07-19T03:39:06.147Z,9.20
2018-07-19T03:41:34.590Z,9.03
2018-07-19T03:44:03.052Z,12.20
2018-07-19T03:46:31.503Z,8.57
2018-07-19T03:48:59.963Z,9.30
2018-07-19T03:51:28.458Z,9.97
2018-07-19T03:53:57.028Z,9.07
2018-07-19T03:56:25.486Z,11.43
2018-07-19T03:58:53.983Z,8.57
2018-07-19T04:01:22.458Z,10.40
2018-07-19T04:03:50.912Z,9.17
2018-07-19T04:06:19.379Z,8.43
2018-07-19T04:08:47.844Z,9.70
2018-07-19T04:11:16.010Z,10.60
2018-07-19T04:13:44.448Z,10.03
2018-07-19T04:16:12.890Z,11.03
2018-07-19T04:18:41.341Z,11.53
2018-07-19T04:21:09.795Z,11.40
2018-07-19T04:23:38.231Z,10.73
2018-07-19T04:26:06.700Z,9.83
2018-07-19T04:28:35.171Z,9.00
2018-07-19T04:31:03.635Z,8.40
2018-07-19T04:33:32.067Z,9.93
2018-07-19T04:36:00.539Z,11.67
2018-07-19T04:38:28.991Z,10.73
2018-07-19T04:40:57.450Z,10.50
2018-07-19T04:43:25.875Z,7.97
2018-07-19T04:45:54.352Z,7.97
2018-07-19T04:48:22.886Z,7.90
2018-07-19T04:50:51.261Z,10.40
2018-07-19T04:53:19.721Z,8.53
2018-07-19T04:55:48.620Z,9.13
2018-07-19T04:58:17.080Z,8.07
2018-07-19T05:00:45.527Z,8.20
2018-07-19T05:03:13.987Z,10.77
2018-07-19T05:05:42.427Z,9.07
2018-07-19T05:08:10.896Z,7.27
2018-07-19T05:10:39.374Z,7.77
2018-07-19T05:13:07.840Z,8.33
2018-07-19T05:15:36.279Z,7.23
2018-07-19T05:18:04.765Z,8.95
2018-07-19T05:20:33.218Z,12.07
2018-07-19T05:23:01.697Z,6.72
2018-07-19T05:25:30.150Z,7.42
2018-07-19T05:27:58.627Z,6.70
2018-07-19T05:30:27.096Z,5.00
2018-07-19T05:32:55.239Z,5.83
2018-07-19T05:35:23.671Z,5.05
2018-07-19T05:37:52.134Z,5.75
2018-07-19T05:40:20.602Z,7.12
2018-07-19T05:42:49.079Z,11.60
2018-07-19T05:45:17.547Z,5.80
2018-07-19T05:47:45.999Z,10.88
2018-07-19T05:50:14.454Z,4.92
2018-07-19T05:52:42.899Z,8.18
2018-07-19T05:55:11.373Z,6.53
2018-07-19T05:57:39.839Z,4.62
2018-07-19T06:00:08.327Z,3.50
2018-07-19T06:02:36.811Z,6.40
2018-07-19T06:05:05.628Z,5.15
2018-07-19T06:07:34.071Z,3.33
2018-07-19T06:10:02.542Z,9.15
2018-07-19T06:12:31.083Z,5.97
2018-07-19T06:14:59.528Z,3.47
2018-07-19T06:17:27.996Z,3.47
2018-07-19T06:19:56.443Z,3.92
2018-07-19T06:22:24.911Z,4.17
2018-07-19T06:24:53.358Z,2.87
2018-07-19T06:27:21.835Z,3.87
2018-07-19T06:29:50.280Z,5.75
2018-07-19T06:32:18.759Z,4.15
2018-07-19T06:34:47.197Z,12.50
2018-07-19T06:37:15.663Z,3.47
2018-07-19T06:39:44.182Z,3.50
2018-07-19T06:42:12.647Z,6.42
2018-07-19T06:44:41.131Z,2.70
2018-07-19T06:47:09.763Z,4.50
2018-07-19T06:49:38.207Z,5.22
2018-07-19T06:52:06.868Z,4.53
2018-07-19T06:54:35.327Z,3.83
2018-07-19T06:57:03.768Z,4.45
2018-07-19T06:59:32.259Z,2.77
2018-07-19T07:02:00.689Z,3.15
2018-07-19T07:04:29.163Z,2.35
2018-07-19T07:06:57.615Z,4.03
2018-07-19T07:09:26.103Z,4.17
2018-07-19T07:11:54.563Z,2.90
2018-07-19T07:14:22.719Z,3.12
2018-07-19T07:16:51.164Z,4.22
2018-07-19T07:19:19.632Z,5.03
2018-07-19T07:21:48.061Z,5.15
2018-07-19T07:24:16.564Z,2.37
2018-07-19T07:26:45.010Z,6.35
2018-07-19T07:29:13.487Z,2.05
2018-07-19T07:31:42.224Z,5.50
2018-07-19T07:34:10.738Z,4.62
2018-07-19T07:36:39.180Z,4.72
2018-07-19T07:39:09.008Z,8.10
2018-07-19T07:41:37.580Z,3.45
2018-07-19T07:44:06.082Z,3.50
2018-07-19T07:46:34.508Z,5.47
2018-07-19T07:49:02.996Z,7.03
2018-07-19T07:51:31.498Z,2.75
2018-07-19T07:53:59.963Z,3.17
2018-07-19T07:56:28.539Z,5.37
2018-07-19T07:58:57.051Z,9.80
2018-07-19T08:01:25.492Z,3.37
2018-07-19T08:03:53.951Z,4.37
2018-07-19T08:06:22.408Z,5.15
2018-07-19T08:08:50.931Z,3.60
2018-07-19T08:11:19.488Z,5.50
2018-07-19T08:13:47.971Z,2.25
2018-07-19T08:16:16.431Z,8.33
2018-07-19T08:18:44.935Z,4.62
2018-07-19T08:21:13.367Z,4.45
2018-07-19T08:23:41.822Z,4.20
2018-07-19T08:26:10.287Z,5.10
2018-07-19T08:28:38.740Z,2.47
2018-07-19T08:31:07.202Z,5.12
2018-07-19T08:33:35.827Z,4.90
2018-07-19T08:36:04.493Z,5.05
2018-07-19T08:38:32.929Z,6.17
2018-07-19T08:41:01.371Z,2.40
2018-07-19T08:43:29.827Z,1.80
2018-07-19T08:45:58.282Z,3.72
2018-07-19T08:48:26.720Z,2.33
2018-07-19T08:50:55.212Z,6.45
2018-07-19T08:53:23.642Z,2.90
2018-07-19T08:55:52.107Z,2.20
2018-07-19T08:58:20.555Z,5.80
2018-07-19T09:00:49.018Z,1.87
2018-07-19T09:03:17.455Z,3.27
2018-07-19T09:05:45.927Z,2.65
2018-07-19T09:08:14.349Z,5.55
2018-07-19T09:10:42.840Z,2.05
2018-07-19T09:13:11.259Z,2.98
2018-07-19T09:15:39.738Z,2.87
2018-07-19T09:18:08.204Z,4.40
2018-07-19T09:20:36.685Z,3.65
2018-07-19T09:23:05.174Z,2.42
2018-07-19T09:25:33.675Z,2.95
2018-07-19T09:28:02.135Z,3.77
2018-07-19T09:30:30.587Z,2.20
2018-07-19T09:32:59.045Z,2.08
2018-07-19T09:35:27.496Z,4.35
2018-07-19T09:37:55.953Z,3.83
2018-07-19T09:40:24.413Z,2.35
2018-07-19T09:42:52.864Z,4.20
2018-07-19T09:45:21.323Z,2.25
2018-07-19T09:47:49.767Z,2.33
2018-07-19T09:50:18.220Z,2.90
2018-07-19T09:52:46.649Z,1.80
2018-07-19T09:55:15.219Z,1.87
2018-07-19T09:57:43.651Z,2.70
2018-07-19T10:00:12.153Z,3.33
2018-07-19T10:02:40.609Z,2.50
2018-07-19T10:05:09.072Z,3.20
2018-07-19T10:07:37.566Z,3.02
2018-07-19T10:10:06.076Z,4.20
2018-07-19T10:12:34.463Z,2.12
2018-07-19T10:15:02.966Z,3.27
2018-07-19T10:17:31.439Z,2.12
2018-07-19T10:20:01.020Z,4.42
2018-07-19T10:22:29.163Z,2.00
2018-07-19T10:24:57.623Z,3.67
2018-07-19T10:27:26.120Z,3.60
2018-07-19T10:29:54.579Z,3.37
2018-07-19T10:32:23.153Z,1.72
2018-07-19T10:34:51.488Z,3.70
2018-07-19T10:37:19.966Z,2.72
2018-07-19T10:39:48.412Z,2.52
2018-07-19T10:42:16.885Z,3.27
2018-07-19T10:44:45.320Z,2.17
2018-07-19T10:47:13.807Z,3.00
2018-07-19T10:49:42.249Z,3.25
2018-07-19T10:52:10.695Z,3.27
2018-07-19T10:54:39.119Z,2.33
2018-07-19T10:57:07.823Z,4.40
2018-07-19T10:59:36.242Z,2.67
2018-07-19T11:02:04.714Z,4.42
2018-07-19T11:04:33.131Z,1.87
2018-07-19T11:07:01.589Z,2.58
2018-07-19T11:09:30.048Z,2.72
2018-07-19T11:11:58.507Z,3.45
2018-07-19T11:14:26.958Z,4.58
2018-07-19T11:16:55.395Z,1.98
2018-07-19T11:19:23.819Z,1.72
2018-07-19T11:21:52.266Z,1.87
2018-07-19T11:24:20.686Z,2.42
2018-07-19T11:26:49.154Z,2.75
2018-07-19T11:29:17.567Z,2.52
2018-07-19T11:31:46.011Z,4.97
2018-07-19T11:34:14.446Z,3.00
2018-07-19T11:36:42.911Z,4.47
2018-07-19T11:39:11.331Z,2.58
2018-07-19T11:41:39.876Z,1.82
2018-07-19T11:44:08.397Z,2.87
2018-07-19T11:46:36.900Z,3.17
2018-07-19T11:49:05.339Z,3.42
2018-07-19T11:51:33.792Z,4.60
2018-07-19T11:54:02.221Z,2.33
2018-07-19T11:56:30.667Z,1.98
2018-07-19T11:58:59.083Z,2.77
2018-07-19T12:01:27.563Z,2.47
2018-07-19T12:03:55.991Z,2.42
2018-07-19T12:06:24.438Z,3.60
2018-07-19T12:08:52.855Z,2.25
2018-07-19T12:11:21.343Z,2.60
2018-07-19T12:13:49.773Z,2.10
2018-07-19T12:16:18.186Z,3.42
2018-07-19T12:18:46.636Z,3.67
2018-07-19T12:21:15.072Z,2.98
2018-07-19T12:23:43.512Z,2.08
2018-07-19T12:26:11.940Z,4.20
2018-07-19T12:28:40.372Z,1.98
2018-07-19T12:31:08.834Z,4.92
2018-07-19T12:33:37.299Z,5.10
2018-07-19T12:36:05.804Z,4.62
2018-07-19T12:38:34.249Z,2.95
2018-07-19T12:41:02.687Z,2.12
2018-07-19T12:43:31.140Z,2.37
2018-07-19T12:45:59.638Z,4.50
2018-07-19T12:48:28.076Z,3.50
2018-07-19T12:50:56.507Z,4.00
2018-07-19T12:53:24.954Z,3.08
2018-07-19T12:55:53.384Z,3.30
2018-07-19T12:58:21.823Z,4.00
2018-07-19T13:00:50.281Z,4.87
2018-07-19T13:03:18.723Z,3.62
2018-07-19T13:05:47.167Z,3.72
2018-07-19T13:08:15.616Z,7.08
2018-07-19T13:10:44.067Z,3.33
2018-07-19T13:13:12.515Z,4.15
2018-07-19T13:15:41.355Z,5.62
2018-07-19T13:18:09.796Z,3.08
2018-07-19T13:20:38.235Z,3.55
2018-07-19T13:23:06.675Z,2.65
2018-07-19T13:25:35.108Z,3.83
2018-07-19T13:28:03.560Z,4.78
2018-07-19T13:30:31.979Z,3.25
2018-07-19T13:33:00.407Z,4.28
2018-07-19T13:35:28.888Z,2.10
2018-07-19T13:37:57.347Z,4.95
2018-07-19T13:40:25.763Z,3.02
2018-07-19T13:42:54.256Z,3.15
2018-07-19T13:45:22.671Z,2.08
2018-07-19T13:47:51.163Z,3.75
2018-07-19T13:50:19.655Z,2.10
2018-07-19T13:52:59.479Z,1.70
2018-07-19T13:55:27.926Z,4.97
2018-07-19T13:57:56.400Z,2.58
2018-07-19T14:00:24.871Z,2.27
2018-07-19T14:02:53.321Z,2.85
2018-07-19T14:05:21.842Z,3.05
2018-07-19T14:07:49.961Z,4.37
2018-07-19T14:10:18.431Z,2.15
2018-07-19T14:12:46.851Z,2.45
2018-07-19T14:15:15.286Z,5.60
2018-07-19T14:17:44.599Z,1.70
2018-07-19T14:20:13.079Z,2.20
2018-07-19T14:22:41.547Z,5.42
2018-07-19T14:25:09.972Z,2.08
2018-07-19T14:27:38.393Z,4.80
2018-07-19T14:30:07.196Z,8.83
2018-07-19T14:32:35.627Z,3.12
2018-07-19T14:35:04.119Z,4.62
2018-07-19T14:37:32.587Z,2.92
2018-07-19T14:40:01.046Z,7.15
2018-07-19T14:42:29.479Z,11.05
2018-07-19T14:44:57.943Z,7.37
2018-07-19T14:47:26.381Z,6.03
2018-07-19T14:49:54.854Z,5.35
2018-07-19T14:52:23.275Z,4.78
2018-07-19T14:54:51.430Z,2.47
2018-07-19T14:57:19.868Z,3.05
2018-07-19T14:59:48.287Z,2.52
2018-07-19T15:02:16.729Z,3.95
2018-07-19T15:04:45.179Z,3.37
2018-07-19T15:07:13.624Z,2.35
2018-07-19T15:09:42.066Z,5.25
2018-07-19T15:12:10.623Z,4.60
2018-07-19T15:14:39.095Z,4.70
2018-07-19T15:17:07.547Z,2.80
2018-07-19T15:19:36.155Z,4.28
2018-07-19T15:22:04.847Z,4.03
2018-07-19T15:24:33.263Z,3.98
2018-07-19T15:27:01.710Z,2.90
2018-07-19T15:29:30.118Z,2.83
2018-07-19T15:31:58.591Z,3.22
2018-07-19T15:34:27.070Z,3.02
2018-07-19T15:36:55.499Z,2.52
2018-07-19T15:39:23.922Z,6.12
2018-07-19T15:41:52.362Z,2.83
2018-07-19T15:44:20.823Z,3.05
2018-07-19T15:46:49.297Z,3.22
2018-07-19T15:49:17.756Z,3.00
2018-07-19T15:51:46.204Z,2.52
2018-07-19T15:54:14.615Z,5.28
2018-07-19T15:56:43.043Z,3.08
2018-07-19T15:59:11.495Z,3.42
2018-07-19T16:01:39.965Z,3.65
2018-07-19T16:04:08.442Z,5.72
2018-07-19T16:06:36.890Z,2.87
2018-07-19T16:09:08.829Z,6.70
2018-07-19T16:11:37.310Z,3.90
2018-07-19T16:14:05.933Z,5.37
2018-07-19T16:16:34.516Z,6.28
2018-07-19T16:19:02.951Z,5.45
2018-07-19T16:21:31.430Z,3.42
2018-07-19T16:23:59.851Z,6.28
2018-07-19T16:26:28.930Z,3.05
2018-07-19T16:28:57.335Z,3.58
2018-07-19T16:31:25.757Z,4.72
2018-07-19T16:33:54.222Z,3.05
2018-07-19T16:36:22.657Z,4.25
2018-07-19T16:38:51.116Z,2.98
2018-07-19T16:41:25.063Z,2.92
2018-07-19T16:43:53.539Z,3.25
2018-07-19T16:46:22.152Z,3.60
2018-07-19T16:48:50.577Z,2.87
2018-07-19T16:51:18.996Z,3.37
2018-07-19T16:53:47.431Z,3.92
2018-07-19T16:56:15.872Z,3.47
2018-07-19T16:58:44.314Z,2.52
2018-07-19T17:01:12.751Z,5.22
2018-07-19T17:03:41.192Z,2.02
2018-07-19T17:06:09.607Z,5.35
2018-07-19T17:08:38.086Z,3.62
2018-07-19T17:11:06.650Z,3.37
2018-07-19T17:13:35.115Z,3.60
2018-07-19T17:16:03.580Z,4.70
2018-07-19T17:18:32.055Z,3.05
2018-07-19T17:21:00.499Z,2.77
2018-07-19T17:23:28.954Z,4.37
2018-07-19T17:25:57.371Z,2.77
2018-07-19T17:28:25.815Z,2.77
2018-07-19T17:30:54.247Z,6.67
2018-07-19T17:33:22.739Z,4.22
2018-07-19T17:35:51.215Z,4.30
2018-07-19T17:38:19.687Z,3.75
2018-07-19T17:40:49.299Z,2.30
2018-07-19T17:43:17.887Z,4.25
2018-07-19T17:45:46.535Z,4.50
2018-07-19T17:48:15.020Z,6.90
2018-07-19T17:50:43.462Z,3.72
2018-07-19T17:53:11.899Z,6.80
2018-07-19T17:55:40.704Z,5.45
2018-07-19T17:58:09.155Z,4.08
2018-07-19T18:00:37.628Z,4.17
2018-07-19T18:03:06.851Z,2.87
2018-07-19T18:05:35.431Z,5.05
2018-07-19T18:08:03.943Z,3.60
2018-07-19T18:10:32.399Z,3.72
2018-07-19T18:13:00.855Z,5.17
2018-07-19T18:15:29.322Z,7.22
2018-07-19T18:17:57.767Z,4.25
2018-07-19T18:20:26.243Z,3.98
2018-07-19T18:22:54.700Z,3.33
2018-07-19T18:25:23.121Z,7.05
2018-07-19T18:27:51.921Z,2.95
2018-07-19T18:30:20.710Z,7.72
2018-07-19T18:32:49.516Z,4.62
2018-07-19T18:35:17.963Z,3.52
2018-07-19T18:37:46.538Z,2.83
2018-07-19T18:40:15.487Z,4.65
2018-07-19T18:42:44.742Z,3.72
2018-07-19T18:45:13.401Z,4.92
2018-07-19T18:47:41.871Z,5.97
2018-07-19T18:50:10.464Z,4.72
2018-07-19T18:52:38.941Z,3.37
2018-07-19T18:55:11.768Z,5.53
2018-07-19T18:57:40.344Z,4.85
2018-07-19T19:00:08.907Z,8.35
2018-07-19T19:02:37.731Z,5.00
2018-07-19T19:05:06.204Z,3.00
2018-07-19T19:07:34.644Z,5.92
2018-07-19T19:10:03.127Z,3.10
2018-07-19T19:12:31.555Z,5.47
2018-07-19T19:15:00.001Z,3.22
2018-07-19T19:17:28.404Z,5.10
2018-07-19T19:19:56.827Z,3.72
2018-07-19T19:22:25.255Z,4.40
2018-07-19T19:24:53.698Z,7.67
2018-07-19T19:27:22.122Z,7.45
2018-07-19T19:29:50.559Z,9.08
2018-07-19T19:32:18.676Z,10.60
2018-07-19T19:34:47.119Z,11.38
2018-07-19T19:37:15.561Z,8.50
2018-07-19T19:39:44.023Z,9.80
2018-07-19T19:42:12.503Z,10.45
2018-07-19T19:44:40.943Z,13.80
2018-07-19T19:47:09.384Z,10.88
2018-07-19T19:49:37.840Z,19.92
2018-07-19T19:52:06.431Z,10.20
2018-07-19T19:54:34.919Z,7.65
2018-07-19T19:57:03.347Z,8.48
2018-07-19T19:59:31.830Z,11.18
2018-07-19T20:02:00.250Z,6.67
2018-07-19T20:04:28.693Z,12.90
2018-07-19T20:06:57.119Z,15.80
2018-07-19T20:09:25.616Z,12.93
2018-07-19T20:11:54.047Z,8.50
2018-07-19T20:14:22.472Z,6.30
2018-07-19T20:16:50.895Z,10.93
2018-07-19T20:19:19.330Z,13.00
2018-07-19T20:21:47.751Z,7.10
2018-07-19T20:24:16.188Z,9.58
2018-07-19T20:26:44.596Z,9.75
2018-07-19T20:29:13.038Z,10.75
2018-07-19T20:31:41.479Z,9.05
2018-07-19T20:34:09.920Z,10.10
2018-07-19T20:36:38.360Z,11.93
2018-07-19T20:39:07.106Z,9.55
2018-07-19T20:41:35.556Z,8.13
2018-07-19T20:44:04.108Z,9.08
2018-07-19T20:46:33.063Z,12.93
2018-07-19T20:49:02.098Z,10.38
2018-07-19T20:51:30.559Z,12.35
2018-07-19T20:53:58.987Z,10.65
2018-07-19T20:56:27.433Z,11.88
2018-07-19T20:58:55.864Z,10.25
2018-07-19T21:01:24.315Z,8.20
2018-07-19T21:03:52.742Z,10.50
2018-07-19T21:06:21.178Z,11.88
2018-07-19T21:08:49.593Z,12.98
2018-07-19T21:11:18.112Z,11.55
2018-07-19T21:13:46.559Z,14.47
2018-07-19T21:16:15.003Z,15.83
2018-07-19T21:18:43.447Z,10.20
2018-07-19T21:21:11.874Z,10.38
2018-07-19T21:23:40.307Z,11.88
2018-07-19T21:26:08.809Z,9.28
2018-07-19T21:28:37.191Z,11.22
2018-07-19T21:31:05.824Z,13.20
2018-07-19T21:33:34.232Z,13.68
2018-07-19T21:36:02.682Z,18.60
2018-07-19T21:38:31.096Z,15.95
2018-07-19T21:40:59.558Z,16.12
2018-07-19T21:43:27.978Z,15.53
2018-07-19T21:45:56.431Z,19.40
2018-07-19T21:48:24.859Z,12.78
2018-07-19T21:50:53.328Z,15.35
2018-07-19T21:53:21.751Z,14.10
2018-07-19T21:55:50.195Z,14.28
2018-07-19T21:58:18.607Z,12.55
2018-07-19T22:00:52.316Z,13.35
2018-07-19T22:03:20.740Z,13.98
2018-07-19T22:05:49.155Z,9.20
2018-07-19T22:08:17.912Z,18.85
2018-07-19T22:10:46.391Z,11.80
2018-07-19T22:13:14.815Z,11.35
2018-07-19T22:15:43.858Z,11.63
2018-07-19T22:18:12.275Z,13.18
2018-07-19T22:20:40.699Z,12.63
2018-07-19T22:23:09.104Z,14.55
2018-07-19T22:25:37.531Z,14.63
2018-07-19T22:28:05.943Z,12.33
2018-07-19T22:30:34.355Z,14.93
2018-07-19T22:33:02.775Z,11.08
2018-07-19T22:35:31.226Z,13.60
2018-07-19T22:37:59.660Z,10.85
2018-07-19T22:40:28.071Z,17.30
2018-07-19T22:42:56.512Z,12.30
2018-07-19T22:45:24.938Z,12.10
2018-07-19T22:47:53.394Z,13.55
2018-07-19T22:50:21.857Z,13.45
2018-07-19T22:52:50.342Z,10.63
2018-07-19T22:55:18.756Z,10.67
2018-07-19T22:57:47.200Z,9.93
2018-07-19T23:00:15.599Z,14.35
2018-07-19T23:02:44.178Z,10.43
2018-07-19T23:05:12.595Z,12.10
2018-07-19T23:07:41.015Z,9.73
2018-07-19T23:10:09.478Z,9.60
2018-07-19T23:12:37.903Z,9.53
2018-07-19T23:15:06.353Z,12.90
2018-07-19T23:17:34.783Z,10.72
2018-07-19T23:20:03.240Z,9.37
2018-07-19T23:22:31.671Z,10.48
2018-07-19T23:25:00.091Z,12.63
2018-07-19T23:27:28.550Z,11.40
2018-07-19T23:29:57.011Z,11.30
2018-07-19T23:32:25.500Z,10.67
2018-07-19T23:34:54.114Z,10.50
2018-07-19T23:37:27.271Z,12.53
2018-07-19T23:40:05.572Z,17.13
2018-07-19T23:42:37.115Z,9.13
2018-07-19T23:45:11.184Z,11.43
2018-07-19T23:47:40.935Z,10.37
2018-07-19T23:50:09.736Z,13.47
2018-07-19T23:52:38.196Z,11.97
2018-07-19T23:55:06.786Z,11.23
2018-07-19T23:57:35.374Z,10.20
